createdAt,value
2023-05-11T00:00:21.125Z,101288.38
2023-05-11T00:00:52.642Z,101283.63
2023-05-11T00:01:24.266Z,101285.25
2023-05-11T00:01:56.876Z,101293.13
2023-05-11T00:02:28.525Z,101284.94
2023-05-11T00:03:00.340Z,101291.91
2023-05-11T00:03:32.823Z,101286.16
2023-05-11T00:04:04.535Z,101288.22
2023-05-11T00:04:36.306Z,101295.19
2023-05-11T00:05:08.291Z,101290.69
2023-05-11T00:05:39.811Z,101292.34
2023-05-11T00:06:11.454Z,101283.56
2023-05-11T00:06:42.997Z,101286.06
2023-05-11T00:07:14.545Z,101287.03
2023-05-11T00:07:46.193Z,101285.78
2023-05-11T00:08:17.818Z,101285.56
2023-05-11T00:08:49.386Z,101287.19
2023-05-11T00:09:21.438Z,101286.38
2023-05-11T00:09:53.253Z,101292.53
2023-05-11T00:10:24.770Z,101281.25
2023-05-11T00:10:56.626Z,101284.66
2023-05-11T00:11:28.255Z,101279.47
2023-05-11T00:11:59.778Z,101285.69
2023-05-11T00:12:31.368Z,101277.69
2023-05-11T00:13:02.924Z,101280.00
2023-05-11T00:13:34.487Z,101277.59
2023-05-11T00:14:06.137Z,101281.31
2023-05-11T00:14:37.680Z,101279.84
2023-05-11T00:15:09.672Z,101278.88
2023-05-11T00:15:41.516Z,101274.78
2023-05-11T00:16:13.221Z,101272.09
2023-05-11T00:16:44.763Z,101275.22
2023-05-11T00:17:16.363Z,101280.13
2023-05-11T00:17:48.048Z,101274.78
2023-05-11T00:18:19.937Z,101279.69
2023-05-11T00:18:51.526Z,101275.38
2023-05-11T00:19:23.132Z,101279.69
2023-05-11T00:19:54.664Z,101282.94
2023-05-11T00:20:26.220Z,101277.59
2023-05-11T00:20:57.906Z,101273.53
2023-05-11T00:21:29.422Z,101273.75
2023-05-11T00:22:01.419Z,101280.94
2023-05-11T00:22:32.943Z,101279.25
2023-05-11T00:23:04.603Z,101277.56
2023-05-11T00:23:36.369Z,101270.56
2023-05-11T00:24:08.617Z,101276.34
2023-05-11T00:24:40.173Z,101283.34
2023-05-11T00:25:11.757Z,101277.78
2023-05-11T00:25:43.331Z,101277.16
2023-05-11T00:26:15.037Z,101279.25
2023-05-11T00:26:48.839Z,101280.88
2023-05-11T00:27:20.382Z,101276.41
2023-05-11T00:27:52.006Z,101284.69
2023-05-11T00:28:23.729Z,101278.97
2023-05-11T00:28:55.445Z,101281.44
2023-05-11T00:29:26.969Z,101286.53
2023-05-11T00:29:58.535Z,101278.31
2023-05-11T00:30:30.275Z,101284.09
2023-05-11T00:31:01.986Z,101277.88
2023-05-11T00:31:33.703Z,101280.97
2023-05-11T00:32:05.410Z,101284.53
2023-05-11T00:32:37.039Z,101282.25
2023-05-11T00:33:08.894Z,101281.03
2023-05-11T00:33:40.949Z,101279.78
2023-05-11T00:34:12.492Z,101281.03
2023-05-11T00:34:44.041Z,101281.44
2023-05-11T00:35:15.812Z,101283.50
2023-05-11T00:35:49.202Z,101282.25
2023-05-11T00:36:21.075Z,101276.75
2023-05-11T00:36:52.774Z,101282.25
2023-05-11T00:37:25.900Z,101287.56
2023-05-11T00:37:57.753Z,101288.22
2023-05-11T00:38:29.276Z,101287.19
2023-05-11T00:39:00.834Z,101287.19
2023-05-11T00:39:32.572Z,101283.88
2023-05-11T00:40:04.858Z,101284.31
2023-05-11T00:40:36.388Z,101288.84
2023-05-11T00:41:08.393Z,101287.00
2023-05-11T00:41:39.926Z,101282.69
2023-05-11T00:42:11.759Z,101280.63
2023-05-11T00:42:43.319Z,101284.31
2023-05-11T00:43:14.908Z,101289.66
2023-05-11T00:43:46.632Z,101280.72
2023-05-11T00:44:18.170Z,101283.38
2023-05-11T00:44:49.700Z,101276.84
2023-05-11T00:45:21.525Z,101276.03
2023-05-11T00:45:53.578Z,101283.81
2023-05-11T00:46:25.230Z,101288.13
2023-05-11T00:46:57.710Z,101283.81
2023-05-11T00:47:29.406Z,101285.13
2023-05-11T00:48:01.097Z,101287.56
2023-05-11T00:48:32.674Z,101283.47
2023-05-11T00:49:04.392Z,101286.38
2023-05-11T00:49:35.984Z,101282.25
2023-05-11T00:50:08.447Z,101284.72
2023-05-11T00:50:39.992Z,101283.47
2023-05-11T00:51:13.078Z,101282.25
2023-05-11T00:51:44.804Z,101284.69
2023-05-11T00:52:16.818Z,101286.16
2023-05-11T00:52:48.368Z,101285.13
2023-05-11T00:53:20.048Z,101286.38
2023-05-11T00:53:51.783Z,101285.56
2023-05-11T00:54:24.786Z,101284.59
2023-05-11T00:54:56.329Z,101287.25
2023-05-11T00:55:28.232Z,101288.47
2023-05-11T00:56:00.132Z,101288.63
2023-05-11T00:56:31.954Z,101284.72
2023-05-11T00:57:04.110Z,101289.06
2023-05-11T00:57:36.285Z,101290.09
2023-05-11T00:58:07.854Z,101289.06
2023-05-11T00:58:39.523Z,101283.06
2023-05-11T00:59:11.406Z,101295.38
2023-05-11T00:59:43.134Z,101293.50
2023-05-11T01:00:15.201Z,101291.66
2023-05-11T01:00:48.031Z,101282.63
2023-05-11T01:01:19.684Z,101288.78
2023-05-11T01:01:51.375Z,101288.81
2023-05-11T01:02:24.055Z,101288.00
2023-05-11T01:02:56.101Z,101291.50
2023-05-11T01:03:27.933Z,101285.97
2023-05-11T01:03:59.576Z,101288.03
2023-05-11T01:04:32.497Z,101290.91
2023-05-11T01:05:04.453Z,101283.47
2023-05-11T01:05:46.108Z,101289.66
2023-05-11T01:06:26.688Z,101284.31
2023-05-11T01:07:03.592Z,101287.78
2023-05-11T01:07:54.008Z,101290.41
2023-05-11T01:08:36.686Z,101284.25
2023-05-11T01:09:26.827Z,101283.88
2023-05-11T01:10:10.047Z,101294.16
2023-05-11T01:11:12.906Z,101278.53
2023-05-11T01:11:55.028Z,101279.94
2023-05-11T01:13:00.358Z,101286.38
2023-05-11T01:13:36.236Z,101284.91
2023-05-11T01:14:33.546Z,101282.31
2023-05-11T01:15:08.664Z,101283.56
2023-05-11T01:15:56.271Z,101284.75
2023-05-11T01:16:31.439Z,101283.13
2023-05-11T01:17:11.242Z,101283.13
2023-05-11T01:17:45.625Z,101277.78
2023-05-11T01:18:29.851Z,101281.25
2023-05-11T01:19:11.723Z,101283.56
2023-05-11T01:20:04.209Z,101278.81
2023-05-11T01:20:36.100Z,101279.25
2023-05-11T01:21:08.613Z,101282.34
2023-05-11T01:21:41.302Z,101279.25
2023-05-11T01:22:37.860Z,101282.13
2023-05-11T01:23:44.120Z,101283.97
2023-05-11T01:25:07.258Z,101289.50
2023-05-11T01:25:44.686Z,101280.97
2023-05-11T01:26:22.972Z,101285.84
2023-05-11T01:27:29.218Z,101286.38
2023-05-11T01:28:37.976Z,101280.88
2023-05-11T01:29:38.008Z,101288.78
2023-05-11T01:30:36.690Z,101279.94
2023-05-11T01:31:11.840Z,101274.00
2023-05-11T01:31:47.111Z,101292.09
2023-05-11T01:32:27.746Z,101281.41
2023-05-11T01:33:04.915Z,101289.81
2023-05-11T01:33:37.983Z,101287.97
2023-05-11T01:34:15.942Z,101289.00
2023-05-11T01:34:48.982Z,101280.53
2023-05-11T01:35:22.620Z,101278.91
2023-05-11T01:35:56.627Z,101281.38
2023-05-11T01:36:32.675Z,101281.38
2023-05-11T01:37:14.277Z,101287.97
2023-05-11T01:37:49.185Z,101286.75
2023-05-11T01:38:22.852Z,101282.25
2023-05-11T01:38:59.093Z,101291.28
2023-05-11T01:39:34.511Z,101281.22
2023-05-11T01:40:12.824Z,101283.47
2023-05-11T01:40:44.580Z,101280.94
2023-05-11T01:41:18.596Z,101287.69
2023-05-11T01:41:52.405Z,101286.22
2023-05-11T01:42:38.298Z,101281.03
2023-05-11T01:43:14.646Z,101285.53
2023-05-11T01:44:01.142Z,101286.66
2023-05-11T01:44:33.339Z,101283.00
2023-05-11T01:45:06.825Z,101284.25
2023-05-11T01:45:41.600Z,101282.94
2023-05-11T01:46:14.182Z,101282.44
2023-05-11T01:46:46.079Z,101282.59
2023-05-11T01:47:18.337Z,101282.75
2023-05-11T01:47:51.109Z,101286.84
2023-05-11T01:48:29.202Z,101279.03
2023-05-11T01:49:03.529Z,101287.66
2023-05-11T01:49:38.688Z,101282.69
2023-05-11T01:50:10.635Z,101281.34
2023-05-11T01:50:43.526Z,101281.41
2023-05-11T01:51:16.085Z,101273.22
2023-05-11T01:51:49.658Z,101277.16
2023-05-11T01:52:25.298Z,101281.25
2023-05-11T01:52:56.894Z,101284.94
2023-05-11T01:53:32.461Z,101276.13
2023-05-11T01:54:08.888Z,101277.78
2023-05-11T01:54:41.970Z,101271.84
2023-05-11T01:55:16.854Z,101278.81
2023-05-11T01:55:49.604Z,101276.78
2023-05-11T01:56:23.029Z,101277.44
2023-05-11T01:56:55.606Z,101285.88
2023-05-11T01:57:29.079Z,101280.97
2023-05-11T01:58:01.669Z,101281.03
2023-05-11T01:58:34.673Z,101278.53
2023-05-11T01:59:06.359Z,101284.72
2023-05-11T01:59:39.614Z,101282.66
2023-05-11T02:00:11.592Z,101278.09
2023-05-11T02:00:46.380Z,101281.31
2023-05-11T02:01:18.147Z,101280.06
2023-05-11T02:01:49.830Z,101287.19
2023-05-11T02:02:22.129Z,101279.16
2023-05-11T02:02:54.927Z,101281.25
2023-05-11T02:03:28.788Z,101281.25
2023-05-11T02:04:02.121Z,101281.69
2023-05-11T02:04:35.588Z,101279.03
2023-05-11T02:05:08.037Z,101277.00
2023-05-11T02:05:40.538Z,101282.19
2023-05-11T02:06:14.488Z,101283.06
2023-05-11T02:06:48.503Z,101285.50
2023-05-11T02:07:20.839Z,101284.69
2023-05-11T02:07:55.728Z,101289.66
2023-05-11T02:08:27.497Z,101296.22
2023-05-11T02:09:01.303Z,101289.44
2023-05-11T02:09:33.995Z,101289.44
2023-05-11T02:10:06.556Z,101290.09
2023-05-11T02:10:38.818Z,101289.28
2023-05-11T02:11:11.696Z,101292.75
2023-05-11T02:11:44.848Z,101292.53
2023-05-11T02:12:18.608Z,101292.47
2023-05-11T02:12:52.228Z,101291.78
2023-05-11T02:13:27.067Z,101295.19
2023-05-11T02:13:59.307Z,101287.34
2023-05-11T02:14:34.232Z,101290.59
2023-05-11T02:15:07.137Z,101294.00
2023-05-11T02:15:41.584Z,101298.59
2023-05-11T02:16:14.916Z,101292.44
2023-05-11T02:16:48.268Z,101290.78
2023-05-11T02:17:21.824Z,101287.91
2023-05-11T02:17:54.796Z,101290.81
2023-05-11T02:18:27.339Z,101297.75
2023-05-11T02:19:02.475Z,101297.47
2023-05-11T02:19:34.953Z,101297.88
2023-05-11T02:20:08.085Z,101294.16
2023-05-11T02:20:43.486Z,101292.09
2023-05-11T02:21:16.416Z,101298.25
2023-05-11T02:21:49.845Z,101294.53
2023-05-11T02:22:23.772Z,101294.59
2023-05-11T02:22:56.585Z,101290.22
2023-05-11T02:23:28.433Z,101289.47
2023-05-11T02:24:06.162Z,101290.97
2023-05-11T02:24:37.974Z,101289.75
2023-05-11T02:25:10.350Z,101289.59
2023-05-11T02:25:43.035Z,101296.63
2023-05-11T02:26:16.743Z,101300.28
2023-05-11T02:26:48.454Z,101291.22
2023-05-11T02:27:20.136Z,101294.72
2023-05-11T02:27:51.861Z,101297.38
2023-05-11T02:28:23.754Z,101294.97
2023-05-11T02:28:55.723Z,101294.16
2023-05-11T02:29:28.220Z,101296.22
2023-05-11T02:29:59.736Z,101296.03
2023-05-11T02:30:32.151Z,101290.91
2023-05-11T02:31:08.020Z,101300.78
2023-05-11T02:31:44.104Z,101295.44
2023-05-11T02:32:22.052Z,101301.00
2023-05-11T02:32:56.303Z,101298.53
2023-05-11T02:33:35.191Z,101308.19
2023-05-11T02:34:14.936Z,101303.88
2023-05-11T02:34:52.537Z,101303.28
2023-05-11T02:35:26.321Z,101304.91
2023-05-11T02:35:59.322Z,101310.19
2023-05-11T02:36:37.702Z,101300.31
2023-05-11T02:37:13.406Z,101308.50
2023-05-11T02:37:47.073Z,101312.38
2023-05-11T02:38:21.248Z,101306.06
2023-05-11T02:38:56.539Z,101307.69
2023-05-11T02:39:34.021Z,101309.94
2023-05-11T02:40:11.015Z,101313.81
2023-05-11T02:40:47.344Z,101314.19
2023-05-11T02:41:26.907Z,101311.28
2023-05-11T02:42:12.014Z,101310.25
2023-05-11T02:42:45.329Z,101307.59
2023-05-11T02:43:23.839Z,101310.91
2023-05-11T02:44:03.273Z,101315.22
2023-05-11T02:44:36.436Z,101314.84
2023-05-11T02:45:08.976Z,101313.38
2023-05-11T02:45:43.960Z,101312.75
2023-05-11T02:46:19.423Z,101311.72
2023-05-11T02:46:52.861Z,101311.91
2023-05-11T02:47:28.578Z,101320.06
2023-05-11T02:48:01.266Z,101317.00
2023-05-11T02:48:43.087Z,101311.44
2023-05-11T02:49:15.682Z,101312.06
2023-05-11T02:49:53.623Z,101311.28
2023-05-11T02:50:28.326Z,101317.41
2023-05-11T02:51:01.495Z,101317.50
2023-05-11T02:51:41.578Z,101320.34
2023-05-11T02:52:14.070Z,101322.63
2023-05-11T02:52:51.556Z,101319.53
2023-05-11T02:53:26.283Z,101314.56
2023-05-11T02:53:59.328Z,101322.75
2023-05-11T02:54:34.659Z,101315.97
2023-05-11T02:55:07.006Z,101323.19
2023-05-11T02:55:38.791Z,101317.25
2023-05-11T02:56:10.571Z,101312.31
2023-05-11T02:56:42.488Z,101318.31
2023-05-11T02:57:14.445Z,101325.47
2023-05-11T02:57:46.621Z,101321.38
2023-05-11T02:58:19.267Z,101313.81
2023-05-11T02:58:55.854Z,101321.22
2023-05-11T02:59:30.924Z,101324.03
2023-05-11T03:00:03.746Z,101327.75
2023-05-11T03:00:35.620Z,101317.06
2023-05-11T03:01:07.811Z,101319.09
2023-05-11T03:01:39.653Z,101324.00
2023-05-11T03:02:12.453Z,101324.81
2023-05-11T03:02:44.368Z,101325.41
2023-05-11T03:03:16.184Z,101325.22
2023-05-11T03:03:48.108Z,101326.88
2023-05-11T03:04:20.027Z,101322.34
2023-05-11T03:04:51.648Z,101328.91
2023-05-11T03:05:24.295Z,101320.28
2023-05-11T03:05:55.968Z,101327.09
2023-05-11T03:06:27.876Z,101325.25
2023-05-11T03:06:59.497Z,101323.19
2023-05-11T03:07:32.169Z,101319.47
2023-05-11T03:08:04.125Z,101321.97
2023-05-11T03:08:36.143Z,101320.94
2023-05-11T03:09:10.155Z,101321.38
2023-05-11T03:09:46.408Z,101322.03
2023-05-11T03:10:18.434Z,101310.53
2023-05-11T03:10:50.416Z,101323.44
2023-05-11T03:11:22.658Z,101318.72
2023-05-11T03:11:54.592Z,101319.41
2023-05-11T03:12:31.457Z,101319.19
2023-05-11T03:13:04.215Z,101317.56
2023-05-11T03:13:35.928Z,101322.06
2023-05-11T03:14:09.417Z,101320.44
2023-05-11T03:14:41.675Z,101315.53
2023-05-11T03:15:13.585Z,101324.13
2023-05-11T03:15:47.762Z,101327.63
2023-05-11T03:16:21.354Z,101322.94
2023-05-11T03:16:54.023Z,101327.84
2023-05-11T03:17:29.734Z,101330.69
2023-05-11T03:18:01.954Z,101334.38
2023-05-11T03:18:34.341Z,101329.28
2023-05-11T03:19:06.592Z,101331.16
2023-05-11T03:19:38.734Z,101329.97
2023-05-11T03:20:11.045Z,101333.25
2023-05-11T03:20:43.087Z,101333.66
2023-05-11T03:21:16.373Z,101336.09
2023-05-11T03:21:47.999Z,101336.09
2023-05-11T03:22:20.585Z,101334.84
2023-05-11T03:22:52.570Z,101336.19
2023-05-11T03:23:24.412Z,101345.41
2023-05-11T03:23:57.611Z,101343.28
2023-05-11T03:24:29.954Z,101343.81
2023-05-11T03:25:03.094Z,101339.47
2023-05-11T03:25:35.862Z,101333.97
2023-05-11T03:26:07.646Z,101334.56
2023-05-11T03:26:41.408Z,101336.78
2023-05-11T03:27:13.916Z,101331.06
2023-05-11T03:27:50.643Z,101322.66
2023-05-11T03:28:23.039Z,101337.50
2023-05-11T03:29:07.572Z,101333.78
2023-05-11T03:29:40.137Z,101327.69
2023-05-11T03:30:14.101Z,101326.44
2023-05-11T03:30:49.447Z,101326.44
2023-05-11T03:31:21.232Z,101329.38
2023-05-11T03:31:54.535Z,101319.97
2023-05-11T03:32:27.039Z,101322.28
2023-05-11T03:32:59.626Z,101318.81
2023-05-11T03:33:32.148Z,101318.44
2023-05-11T03:34:04.651Z,101320.28
2023-05-11T03:34:40.758Z,101318.03
2023-05-11T03:35:14.146Z,101325.91
2023-05-11T03:35:46.626Z,101312.78
2023-05-11T03:36:22.869Z,101322.22
2023-05-11T03:36:55.827Z,101313.16
2023-05-11T03:37:30.494Z,101311.94
2023-05-11T03:38:02.884Z,101314.28
2023-05-11T03:38:35.903Z,101320.44
2023-05-11T03:39:09.112Z,101315.16
2023-05-11T03:39:42.834Z,101313.09
2023-05-11T03:40:16.467Z,101310.25
2023-05-11T03:40:56.392Z,101314.56
2023-05-11T03:41:31.500Z,101316.19
2023-05-11T03:42:04.130Z,101310.41
2023-05-11T03:42:38.135Z,101312.31
2023-05-11T03:43:12.689Z,101305.25
2023-05-11T03:43:49.810Z,101312.69
2023-05-11T03:44:22.740Z,101314.81
2023-05-11T03:44:58.508Z,101310.75
2023-05-11T03:45:31.739Z,101307.00
2023-05-11T03:46:04.172Z,101309.88
2023-05-11T03:46:38.192Z,101309.47
2023-05-11T03:47:12.597Z,101311.28
2023-05-11T03:47:45.304Z,101309.38
2023-05-11T03:48:17.318Z,101320.00
2023-05-11T03:48:49.177Z,101317.13
2023-05-11T03:49:25.367Z,101317.13
2023-05-11T03:49:57.870Z,101319.78
2023-05-11T03:50:29.594Z,101313.63
2023-05-11T03:51:01.257Z,101314.28
2023-05-11T03:51:34.703Z,101318.38
2023-05-11T03:52:06.594Z,101310.97
2023-05-11T03:52:38.184Z,101314.66
2023-05-11T03:53:11.118Z,101317.97
2023-05-11T03:53:42.855Z,101317.16
2023-05-11T03:54:14.450Z,101308.94
2023-05-11T03:54:46.058Z,101314.50
2023-05-11T03:55:17.695Z,101318.00
2023-05-11T03:55:50.640Z,101310.03
2023-05-11T03:56:22.250Z,101317.66
2023-05-11T03:56:54.821Z,101309.03
2023-05-11T03:57:26.530Z,101308.22
2023-05-11T03:57:58.136Z,101311.53
2023-05-11T03:58:30.705Z,101302.75
2023-05-11T03:59:03.974Z,101309.47
2023-05-11T03:59:35.560Z,101310.34
2023-05-11T04:00:08.307Z,101310.09
2023-05-11T04:00:46.694Z,101311.16
2023-05-11T04:01:18.624Z,101313.03
2023-05-11T04:01:53.111Z,101302.91
2023-05-11T04:02:24.879Z,101315.22
2023-05-11T04:02:56.569Z,101309.72
2023-05-11T04:03:28.380Z,101307.88
2023-05-11T04:04:00.287Z,101310.31
2023-05-11T04:04:32.140Z,101316.09
2023-05-11T04:05:11.613Z,101304.75
2023-05-11T04:05:43.625Z,101307.41
2023-05-11T04:06:18.119Z,101302.28
2023-05-11T04:06:51.509Z,101315.25
2023-05-11T04:07:26.061Z,101309.31
2023-05-11T04:07:57.749Z,101305.38
2023-05-11T04:08:29.716Z,101311.53
2023-05-11T04:09:01.272Z,101309.91
2023-05-11T04:09:32.849Z,101316.88
2023-05-11T04:10:05.551Z,101315.25
2023-05-11T04:10:38.294Z,101311.53
2023-05-11T04:11:10.142Z,101309.91
2023-05-11T04:11:41.709Z,101307.06
2023-05-11T04:12:13.305Z,101307.06
2023-05-11T04:12:46.739Z,101313.22
2023-05-11T04:13:18.350Z,101309.34
2023-05-11T04:13:50.235Z,101310.16
2023-05-11T04:14:21.869Z,101315.72
2023-05-11T04:14:53.398Z,101304.22
2023-05-11T04:15:25.609Z,101307.09
2023-05-11T04:15:57.171Z,101309.16
2023-05-11T04:16:28.707Z,101303.44
2023-05-11T04:17:01.835Z,101305.28
2023-05-11T04:17:33.465Z,101300.16
2023-05-11T04:18:05.146Z,101302.19
2023-05-11T04:18:37.056Z,101303.44
2023-05-11T04:19:08.619Z,101307.94
2023-05-11T04:19:40.235Z,101310.00
2023-05-11T04:20:11.903Z,101305.69
2023-05-11T04:20:43.435Z,101307.75
2023-05-11T04:21:15.234Z,101310.44
2023-05-11T04:21:46.847Z,101310.44
2023-05-11T04:22:18.367Z,101306.13
2023-05-11T04:22:49.917Z,101307.16
2023-05-11T04:23:21.512Z,101307.16
2023-05-11T04:23:53.046Z,101307.97
2023-05-11T04:24:24.685Z,101308.19
2023-05-11T04:24:56.238Z,101307.16
2023-05-11T04:25:28.671Z,101313.94
2023-05-11T04:26:00.329Z,101314.16
2023-05-11T04:26:31.866Z,101317.03
2023-05-11T04:27:04.103Z,101313.38
2023-05-11T04:27:35.774Z,101319.50
2023-05-11T04:28:09.007Z,101315.81
2023-05-11T04:28:40.535Z,101324.22
2023-05-11T04:29:12.072Z,101325.25
2023-05-11T04:29:43.683Z,101317.44
2023-05-11T04:30:16.046Z,101324.25
2023-05-11T04:30:55.073Z,101320.34
2023-05-11T04:31:26.711Z,101321.16
2023-05-11T04:31:58.499Z,101328.13
2023-05-11T04:32:31.634Z,101323.22
2023-05-11T04:33:03.604Z,101330.22
2023-05-11T04:33:35.898Z,101327.97
2023-05-11T04:34:08.364Z,101324.06
2023-05-11T04:34:41.244Z,101322.41
2023-05-11T04:35:14.057Z,101326.94
2023-05-11T04:35:45.726Z,101324.91
2023-05-11T04:36:17.354Z,101320.78
2023-05-11T04:36:50.505Z,101330.22
2023-05-11T04:37:23.124Z,101324.88
2023-05-11T04:37:55.000Z,101328.16
2023-05-11T04:38:26.794Z,101322.03
2023-05-11T04:38:58.593Z,101323.66
2023-05-11T04:39:31.329Z,101323.66
2023-05-11T04:40:04.441Z,101324.63
2023-05-11T04:40:41.642Z,101325.25
2023-05-11T04:41:14.784Z,101328.91
2023-05-11T04:41:46.777Z,101325.63
2023-05-11T04:42:18.399Z,101325.59
2023-05-11T04:42:54.216Z,101328.03
2023-05-11T04:43:25.937Z,101323.94
2023-05-11T04:43:57.492Z,101326.41
2023-05-11T04:44:29.030Z,101323.13
2023-05-11T04:45:00.696Z,101328.25
2023-05-11T04:45:32.270Z,101327.22
2023-05-11T04:46:03.844Z,101324.34
2023-05-11T04:46:35.759Z,101330.50
2023-05-11T04:47:07.469Z,101325.38
2023-05-11T04:47:39.186Z,101323.13
2023-05-11T04:48:12.221Z,101323.94
2023-05-11T04:48:43.790Z,101320.06
2023-05-11T04:49:16.364Z,101319.03
2023-05-11T04:49:47.913Z,101323.97
2023-05-11T04:50:19.843Z,101320.88
2023-05-11T04:50:51.913Z,101325.41
2023-05-11T04:51:24.534Z,101322.91
2023-05-11T04:51:56.070Z,101321.91
2023-05-11T04:52:27.685Z,101322.53
2023-05-11T04:52:59.274Z,101328.06
2023-05-11T04:53:31.080Z,101323.78
2023-05-11T04:54:02.603Z,101325.63
2023-05-11T04:54:34.381Z,101329.34
2023-05-11T04:55:06.496Z,101321.97
2023-05-11T04:55:38.350Z,101323.59
2023-05-11T04:56:09.987Z,101318.22
2023-05-11T04:56:41.646Z,101326.19
2023-05-11T04:57:13.599Z,101324.16
2023-05-11T04:57:45.297Z,101313.50
2023-05-11T04:58:16.833Z,101318.59
2023-05-11T04:58:48.404Z,101316.91
2023-05-11T04:59:20.038Z,101319.19
2023-05-11T04:59:51.679Z,101321.00
2023-05-11T05:00:23.358Z,101315.25
2023-05-11T05:00:55.029Z,101324.88
2023-05-11T05:01:26.619Z,101319.81
2023-05-11T05:01:58.172Z,101314.88
2023-05-11T05:02:29.740Z,101311.59
2023-05-11T05:03:01.432Z,101311.97
2023-05-11T05:03:33.140Z,101317.34
2023-05-11T05:04:04.829Z,101316.56
2023-05-11T05:04:36.613Z,101310.81
2023-05-11T05:05:08.700Z,101322.31
2023-05-11T05:05:40.879Z,101318.19
2023-05-11T05:06:12.634Z,101320.69
2023-05-11T05:06:44.325Z,101316.56
2023-05-11T05:07:15.899Z,101319.03
2023-05-11T05:07:47.450Z,101319.28
2023-05-11T05:08:19.053Z,101321.94
2023-05-11T05:08:50.752Z,101321.16
2023-05-11T05:09:22.879Z,101323.81
2023-05-11T05:09:55.337Z,101317.44
2023-05-11T05:10:27.055Z,101320.31
2023-05-11T05:10:58.622Z,101320.13
2023-05-11T05:11:31.194Z,101327.31
2023-05-11T05:12:02.797Z,101322.56
2023-05-11T05:12:38.714Z,101323.41
2023-05-11T05:13:10.380Z,101325.22
2023-05-11T05:13:42.020Z,101331.22
2023-05-11T05:14:13.722Z,101326.91
2023-05-11T05:14:45.268Z,101329.16
2023-05-11T05:15:16.949Z,101326.06
2023-05-11T05:15:48.539Z,101325.25
2023-05-11T05:16:20.199Z,101327.13
2023-05-11T05:16:54.533Z,101325.66
2023-05-11T05:17:26.557Z,101326.41
2023-05-11T05:17:58.157Z,101328.03
2023-05-11T05:18:30.483Z,101330.28
2023-05-11T05:19:02.122Z,101323.13
2023-05-11T05:19:35.807Z,101321.69
2023-05-11T05:20:08.000Z,101328.88
2023-05-11T05:20:39.767Z,101318.84
2023-05-11T05:21:11.459Z,101322.31
2023-05-11T05:21:43.084Z,101317.41
2023-05-11T05:22:15.802Z,101326.63
2023-05-11T05:22:47.414Z,101327.22
2023-05-11T05:23:18.955Z,101326.03
2023-05-11T05:23:50.640Z,101330.69
2023-05-11T05:24:22.270Z,101327.97
2023-05-11T05:24:53.927Z,101326.31
2023-05-11T05:25:25.556Z,101332.09
2023-05-11T05:25:57.217Z,101327.38
2023-05-11T05:26:29.208Z,101330.03
2023-05-11T05:27:01.048Z,101335.38
2023-05-11T05:27:34.916Z,101336.19
2023-05-11T05:28:09.060Z,101336.19
2023-05-11T05:28:40.963Z,101338.03
2023-05-11T05:29:12.679Z,101334.19
2023-05-11T05:29:44.324Z,101340.56
2023-05-11T05:30:16.248Z,101338.94
2023-05-11T05:30:48.014Z,101332.56
2023-05-11T05:31:20.357Z,101346.31
2023-05-11T05:31:52.021Z,101345.72
2023-05-11T05:32:24.430Z,101351.06
2023-05-11T05:32:56.498Z,101339.97
2023-05-11T05:33:28.192Z,101339.19
2023-05-11T05:34:00.159Z,101344.25
2023-05-11T05:34:32.417Z,101339.53
2023-05-11T05:35:04.458Z,101341.81
2023-05-11T05:35:35.973Z,101345.31
2023-05-11T05:36:07.971Z,101340.34
2023-05-11T05:36:39.606Z,101336.66
2023-05-11T05:37:11.317Z,101343.81
2023-05-11T05:37:42.937Z,101336.56
2023-05-11T05:38:14.765Z,101346.41
2023-05-11T05:38:46.529Z,101341.22
2023-05-11T05:39:18.539Z,101348.81
2023-05-11T05:39:50.150Z,101348.94
2023-05-11T05:40:21.841Z,101344.97
2023-05-11T05:40:57.170Z,101345.38
2023-05-11T05:41:30.102Z,101340.00
2023-05-11T05:42:03.093Z,101346.38
2023-05-11T05:42:34.716Z,101344.03
2023-05-11T05:43:06.743Z,101344.44
2023-05-11T05:43:38.602Z,101341.16
2023-05-11T05:44:10.275Z,101339.91
2023-05-11T05:44:42.783Z,101335.75
2023-05-11T05:45:14.839Z,101342.31
2023-05-11T05:45:46.991Z,101342.88
2023-05-11T05:46:19.696Z,101343.25
2023-05-11T05:46:51.529Z,101339.03
2023-05-11T05:47:23.114Z,101340.59
2023-05-11T05:47:54.769Z,101342.31
2023-05-11T05:48:27.145Z,101338.78
2023-05-11T05:48:58.703Z,101341.47
2023-05-11T05:49:30.306Z,101342.72
2023-05-11T05:50:02.064Z,101347.66
2023-05-11T05:50:33.784Z,101339.31
2023-05-11T05:51:05.468Z,101347.50
2023-05-11T05:51:37.097Z,101343.84
2023-05-11T05:52:10.381Z,101344.28
2023-05-11T05:52:42.470Z,101343.09
2023-05-11T05:53:14.978Z,101341.84
2023-05-11T05:53:46.748Z,101348.75
2023-05-11T05:54:18.355Z,101347.88
2023-05-11T05:54:50.370Z,101343.56
2023-05-11T05:55:22.398Z,101349.25
2023-05-11T05:55:55.226Z,101350.25
2023-05-11T05:56:27.216Z,101338.13
2023-05-11T05:56:58.884Z,101344.91
2023-05-11T05:57:30.808Z,101355.81
2023-05-11T05:58:02.883Z,101346.75
2023-05-11T05:58:34.652Z,101349.50
2023-05-11T05:59:09.014Z,101346.94
2023-05-11T05:59:40.935Z,101349.94
2023-05-11T06:00:14.039Z,101345.19
2023-05-11T06:00:45.749Z,101346.53
2023-05-11T06:01:18.467Z,101350.31
2023-05-11T06:01:50.986Z,101351.44
2023-05-11T06:02:22.893Z,101346.44
2023-05-11T06:02:54.511Z,101354.25
2023-05-11T06:03:30.320Z,101358.41
2023-05-11T06:04:02.589Z,101352.44
2023-05-11T06:04:36.509Z,101360.34
2023-05-11T06:05:08.631Z,101354.34
2023-05-11T06:05:40.207Z,101355.16
2023-05-11T06:06:12.058Z,101358.44
2023-05-11T06:06:43.654Z,101356.34
2023-05-11T06:07:15.602Z,101355.31
2023-05-11T06:07:58.091Z,101358.16
2023-05-11T06:08:33.729Z,101366.25
2023-05-11T06:09:05.285Z,101361.69
2023-05-11T06:09:39.101Z,101354.94
2023-05-11T06:10:10.998Z,101364.19
2023-05-11T06:10:42.597Z,101356.72
2023-05-11T06:11:15.996Z,101365.28
2023-05-11T06:11:48.483Z,101354.03
2023-05-11T06:12:21.081Z,101361.16
2023-05-11T06:12:54.372Z,101365.41
2023-05-11T06:13:26.306Z,101363.53
2023-05-11T06:13:58.202Z,101361.25
2023-05-11T06:14:29.934Z,101363.00
2023-05-11T06:15:01.746Z,101363.13
2023-05-11T06:15:34.439Z,101362.81
2023-05-11T06:16:12.982Z,101359.72
2023-05-11T06:16:44.871Z,101363.25
2023-05-11T06:17:16.605Z,101366.25
2023-05-11T06:17:49.881Z,101362.16
2023-05-11T06:18:22.022Z,101364.09
2023-05-11T06:18:54.279Z,101366.09
2023-05-11T06:19:25.975Z,101360.59
2023-05-11T06:19:57.708Z,101362.38
2023-05-11T06:20:32.579Z,101362.09
2023-05-11T06:21:04.379Z,101370.25
2023-05-11T06:21:36.920Z,101369.84
2023-05-11T06:22:08.593Z,101367.16
2023-05-11T06:22:40.858Z,101365.00